Time;durP1;ratioP1;P1;durP2;ratioP2;P2;SDS_P1;SDS_P2;PMS_P1;PMS_P2;Temp;Humidity;BMP_temperature;BMP_pressure;BME280_temperature;BME280_humidity;BME280_pressure;Samples;Min_cycle;Max_cycle;Signal;HPM_P1;HPM_P2
2022/01/12 00:02:11;;;;;;;18.98;9.57;;;;;;;;;;5063416;28;20042;-49
2022/01/12 00:04:37;;;;;;;21.00;10.07;;;;;;;;;;5063223;28;20371;-48
2022/01/12 00:07:03;;;;;;;37.65;16.65;;;;;;;;;;5063274;28;20025;-48
2022/01/12 00:09:29;;;;;;;34.67;16.30;;;;;;;;;;5063060;28;20085;-46
2022/01/12 00:11:55;;;;;;;26.77;13.60;;;;;;;;;;5063009;28;20036;-49
2022/01/12 00:14:21;;;;;;;30.15;14.25;;;;;;;;;;5064135;28;20068;-50
2022/01/12 00:16:48;;;;;;;22.27;11.07;;;;;;;;;;5062961;28;20036;-48
2022/01/12 00:19:15;;;;;;;29.70;13.95;;;;;;;;;;5064346;28;20017;-48
2022/01/12 00:21:41;;;;;;;24.98;12.00;;;;;;;;;;5064975;28;20047;-51
2022/01/12 00:24:08;;;;;;;17.10;8.60;;;;;;;;;;5073623;28;20054;-48
2022/01/12 00:34:31;;;;;;;13.50;7.90;;;;;;;;;;5073768;28;20044;-50
2022/01/12 00:37:00;;;;;;;19.92;10.32;;;;;;;;;;5073526;28;20020;-53
2022/01/12 00:39:26;;;;;;;11.63;6.03;;;;;;;;;;5073565;28;20020;-51
2022/01/12 00:41:52;;;;;;;14.18;6.50;;;;;;;;;;5073377;28;20081;-51
2022/01/12 00:44:23;;;;;;;16.83;8.95;;;;;;;;;;5073385;28;20028;-51
2022/01/12 00:46:50;;;;;;;14.90;7.40;;;;;;;;;;5073619;28;20102;-53
2022/01/12 00:49:16;;;;;;;16.17;8.82;;;;;;;;;;5073412;28;20020;-50
2022/01/12 00:51:42;;;;;;;16.98;8.77;;;;;;;;;;5073319;28;20036;-50
2022/01/12 00:54:11;;;;;;;19.25;10.13;;;;;;;;;;5073344;28;20021;-50
2022/01/12 00:56:37;;;;;;;12.30;6.18;;;;;;;;;;5073408;28;20161;-54
2022/01/12 00:59:03;;;;;;;10.80;6.30;;;;;;;;;;5073189;28;20029;-50
2022/01/12 01:01:30;;;;;;;14.77;7.80;;;;;;;;;;5073368;28;20071;-52
2022/01/12 01:03:58;;;;;;;10.40;6.30;;;;;;;;;;5073299;28;20029;-51
2022/01/12 01:06:24;;;;;;;10.48;5.65;;;;;;;;;;5073401;28;20027;-49
2022/01/12 01:08:52;;;;;;;14.20;7.63;;;;;;;;;;5073318;28;20097;-53
2022/01/12 01:11:23;;;;;;;21.27;11.07;;;;;;;;;;5073319;28;20111;-50
2022/01/12 01:14:01;;;;;;;13.35;7.00;;;;;;;;;;5073272;28;20021;-52
2022/01/12 01:27:09;;;;;;;12.27;7.07;;;;;;;;;;5073086;28;20051;-47
2022/01/12 01:29:35;;;;;;;16.20;7.38;;;;;;;;;;5072921;28;20060;-48
2022/01/12 01:32:01;;;;;;;13.55;7.18;;;;;;;;;;5072876;28;20390;-48
2022/01/12 01:34:32;;;;;;;11.05;5.97;;;;;;;;;;5072817;28;20043;-50
2022/01/12 01:36:58;;;;;;;18.25;8.68;;;;;;;;;;5072834;28;20532;-49
2022/01/12 01:39:25;;;;;;;14.32;7.75;;;;;;;;;;5073041;28;20021;-49
2022/01/12 01:42:02;;;;;;;12.80;6.25;;;;;;;;;;5076142;28;20124;-49
2022/01/12 01:53:18;;;;;;;13.20;6.57;;;;;;;;;;5076806;28;20025;-52
2022/01/12 01:55:41;;;;;;;14.07;7.05;;;;;;;;;;5076444;28;20125;-51
2022/01/12 01:58:07;;;;;;;16.52;6.82;;;;;;;;;;5076211;28;20035;-48
2022/01/12 02:00:35;;;;;;;12.32;5.60;;;;;;;;;;5076608;28;20440;-49
2022/01/12 02:03:01;;;;;;;12.25;5.78;;;;;;;;;;5076207;28;20452;-50
2022/01/12 02:05:28;;;;;;;14.20;6.95;;;;;;;;;;5076307;28;20027;-51
2022/01/12 02:07:54;;;;;;;13.48;7.53;;;;;;;;;;5076211;28;20397;-50
2022/01/12 02:10:20;;;;;;;14.00;6.57;;;;;;;;;;5076344;28;20087;-51
2022/01/12 02:12:46;;;;;;;12.45;6.22;;;;;;;;;;5076231;28;20420;-49
2022/01/12 02:15:18;;;;;;;11.85;6.85;;;;;;;;;;5076074;28;20029;-50
2022/01/12 02:18:03;;;;;;;12.88;6.88;;;;;;;;;;5076083;28;20099;-50
2022/01/12 02:37:12;;;;;;;13.00;6.95;;;;;;;;;;5076118;28;20027;-49
2022/01/12 02:39:55;;;;;;;13.20;6.32;;;;;;;;;;5075656;28;20040;-48
2022/01/12 02:42:22;;;;;;;11.48;5.90;;;;;;;;;;5075488;28;20552;-47
2022/01/12 02:55:47;;;;;;;10.45;5.32;;;;;;;;;;5075234;28;20067;-49
2022/01/12 02:58:13;;;;;;;14.30;6.85;;;;;;;;;;5075336;28;20024;-50
2022/01/12 03:03:30;;;;;;;12.18;6.10;;;;;;;;;;5033293;28;20495;-49
2022/01/12 03:06:00;;;;;;;13.35;6.75;;;;;;;;;;5033237;28;20041;-50
2022/01/12 03:08:28;;;;;;;13.27;6.53;;;;;;;;;;5033236;28;20438;-51
2022/01/12 03:10:54;;;;;;;11.18;6.35;;;;;;;;;;5033070;28;20033;-50
2022/01/12 03:13:21;;;;;;;16.30;7.10;;;;;;;;;;5032863;28;20450;-51
2022/01/12 03:15:48;;;;;;;11.50;6.10;;;;;;;;;;5032991;28;20064;-48
2022/01/12 03:18:15;;;;;;;12.32;6.13;;;;;;;;;;5032958;28;20057;-49
2022/01/12 03:20:41;;;;;;;13.30;5.68;;;;;;;;;;5033044;28;20100;-48
2022/01/12 03:23:10;;;;;;;8.85;5.22;;;;;;;;;;5033121;28;20092;-48
2022/01/12 03:25:36;;;;;;;10.73;5.47;;;;;;;;;;5032861;28;20076;-48
2022/01/12 03:28:04;;;;;;;12.38;6.38;;;;;;;;;;5032256;28;20045;-48
2022/01/12 03:30:37;;;;;;;12.40;6.07;;;;;;;;;;5032704;28;20065;-49
2022/01/12 03:33:16;;;;;;;11.55;6.25;;;;;;;;;;5032730;28;20036;-48
2022/01/12 03:35:51;;;;;;;12.52;6.38;;;;;;;;;;5032580;28;20435;-50
2022/01/12 03:38:20;;;;;;;11.88;6.32;;;;;;;;;;5032500;28;20053;-48
2022/01/12 03:40:46;;;;;;;12.20;6.60;;;;;;;;;;5057324;28;20032;-49
2022/01/12 03:43:12;;;;;;;13.73;6.70;;;;;;;;;;5074309;28;20497;-49
2022/01/12 03:45:39;;;;;;;16.38;7.53;;;;;;;;;;5074344;28;20090;-49
2022/01/12 03:48:05;;;;;;;15.90;8.15;;;;;;;;;;5074470;28;20505;-48
2022/01/12 03:50:31;;;;;;;11.65;6.82;;;;;;;;;;5074357;28;20074;-49
2022/01/12 03:52:57;;;;;;;14.98;7.40;;;;;;;;;;5074253;28;20024;-48
2022/01/12 03:55:23;;;;;;;14.95;7.15;;;;;;;;;;5074165;28;20056;-47
2022/01/12 03:57:49;;;;;;;15.02;6.97;;;;;;;;;;5074005;28;20033;-47
2022/01/12 04:00:15;;;;;;;18.05;8.80;;;;;;;;;;5074271;28;20060;-49
2022/01/12 04:02:41;;;;;;;20.85;10.32;;;;;;;;;;5073589;28;20102;-48
2022/01/12 04:05:23;;;;;;;20.40;10.43;;;;;;;;;;5074231;28;20052;-49
2022/01/12 04:10:34;;;;;;;18.42;9.77;;;;;;;;;;5074452;28;20398;-50
2022/01/12 04:13:00;;;;;;;17.15;9.07;;;;;;;;;;5073875;28;20063;-50
2022/01/12 04:15:27;;;;;;;18.77;9.80;;;;;;;;;;5073776;28;20024;-50
2022/01/12 04:17:53;;;;;;;20.73;11.23;;;;;;;;;;5073826;28;20217;-50
2022/01/12 04:20:19;;;;;;;21.27;10.98;;;;;;;;;;5073820;28;20024;-49
2022/01/12 04:25:32;;;;;;;22.08;11.70;;;;;;;;;;5073934;28;20393;-48
2022/01/12 04:27:58;;;;;;;23.58;11.52;;;;;;;;;;5073322;28;20045;-51
2022/01/12 04:30:24;;;;;;;26.55;13.82;;;;;;;;;;5073597;28;20082;-50
2022/01/12 04:32:50;;;;;;;24.00;11.48;;;;;;;;;;5073630;28;20024;-49
2022/01/12 04:35:19;;;;;;;27.92;12.77;;;;;;;;;;5073471;28;20024;-49
2022/01/12 04:37:45;;;;;;;29.38;15.07;;;;;;;;;;5073571;28;20016;-50
2022/01/12 04:40:11;;;;;;;30.35;15.50;;;;;;;;;;5073456;28;20016;-46
2022/01/12 04:42:37;;;;;;;37.38;16.80;;;;;;;;;;5073331;28;20032;-49
2022/01/12 04:45:17;;;;;;;31.58;15.82;;;;;;;;;;5073288;28;20486;-48
2022/01/12 04:50:35;;;;;;;32.67;15.95;;;;;;;;;;5051059;28;20025;-47
2022/01/12 04:53:02;;;;;;;38.28;17.70;;;;;;;;;;5051119;28;20492;-47
2022/01/12 04:55:28;;;;;;;35.33;16.92;;;;;;;;;;5051132;28;20098;-46
2022/01/12 04:57:54;;;;;;;36.13;17.73;;;;;;;;;;5050885;28;20036;-48
2022/01/12 05:00:21;;;;;;;39.33;19.17;;;;;;;;;;5051018;28;20021;-48
2022/01/12 05:13:31;;;;;;;39.35;17.83;;;;;;;;;;5051101;28;20422;-47
2022/01/12 05:15:58;;;;;;;47.50;20.17;;;;;;;;;;5053213;28;20063;-48
2022/01/12 05:18:26;;;;;;;45.40;18.67;;;;;;;;;;5055252;28;20031;-49
2022/01/12 05:20:53;;;;;;;36.00;15.75;;;;;;;;;;5055090;28;20064;-48
2022/01/12 05:23:21;;;;;;;36.85;16.70;;;;;;;;;;5054971;28;20446;-48
2022/01/12 05:25:47;;;;;;;41.50;18.33;;;;;;;;;;5054851;28;20605;-48
2022/01/12 05:28:14;;;;;;;33.40;16.42;;;;;;;;;;5071584;28;20059;-50
2022/01/12 05:30:42;;;;;;;36.45;16.38;;;;;;;;;;5077297;28;20024;-48
2022/01/12 05:33:09;;;;;;;39.20;18.83;;;;;;;;;;5077011;28;20028;-48
2022/01/12 05:35:37;;;;;;;35.75;16.50;;;;;;;;;;5076920;28;20027;-48
2022/01/12 05:38:04;;;;;;;39.95;18.15;;;;;;;;;;5077076;28;20029;-49
2022/01/12 05:40:33;;;;;;;39.97;21.00;;;;;;;;;;5076796;28;20364;-48
2022/01/12 05:43:00;;;;;;;42.65;21.63;;;;;;;;;;5076921;28;20036;-48
2022/01/12 05:45:27;;;;;;;48.60;22.67;;;;;;;;;;5076739;28;20052;-49
2022/01/12 05:50:20;;;;;;;45.40;20.65;;;;;;;;;;5076629;28;20359;-49
2022/01/12 05:52:48;;;;;;;43.75;20.23;;;;;;;;;;5076584;28;20024;-49
2022/01/12 05:55:15;;;;;;;44.30;19.08;;;;;;;;;;5076392;28;20017;-48
2022/01/12 05:57:43;;;;;;;37.85;17.95;;;;;;;;;;5076717;28;20051;-48
2022/01/12 06:00:11;;;;;;;39.75;18.08;;;;;;;;;;5076443;28;20548;-48
2022/01/12 06:02:37;;;;;;;37.33;18.45;;;;;;;;;;5076414;28;20123;-50
2022/01/12 06:05:04;;;;;;;40.45;19.33;;;;;;;;;;5076300;28;20108;-49
2022/01/12 06:07:30;;;;;;;44.40;20.15;;;;;;;;;;5076224;28;20031;-48
2022/01/12 06:09:56;;;;;;;39.67;19.52;;;;;;;;;;5076173;28;20013;-49
2022/01/12 06:12:22;;;;;;;42.67;19.67;;;;;;;;;;5076341;28;20410;-48
2022/01/12 06:14:49;;;;;;;38.95;19.65;;;;;;;;;;5076139;28;20093;-48
2022/01/12 06:17:15;;;;;;;37.53;19.85;;;;;;;;;;5076259;28;20024;-48
2022/01/12 06:19:41;;;;;;;46.25;20.70;;;;;;;;;;5076102;28;20020;-48
2022/01/12 06:22:07;;;;;;;45.28;20.63;;;;;;;;;;5075997;28;20024;-51
2022/01/12 06:24:33;;;;;;;47.28;21.45;;;;;;;;;;5075975;28;20031;-50
2022/01/12 06:27:00;;;;;;;43.28;19.90;;;;;;;;;;5075383;28;20432;-49
2022/01/12 06:29:41;;;;;;;43.58;20.50;;;;;;;;;;5075508;28;20057;-49
2022/01/12 06:32:07;;;;;;;53.58;24.20;;;;;;;;;;5076069;28;20024;-48
2022/01/12 06:34:34;;;;;;;54.03;23.27;;;;;;;;;;5075821;28;20037;-50
2022/01/12 06:37:00;;;;;;;50.05;24.58;;;;;;;;;;5075700;28;20020;-50
2022/01/12 06:39:26;;;;;;;41.38;20.00;;;;;;;;;;5075916;28;20689;-48
2022/01/12 06:41:53;;;;;;;41.67;20.90;;;;;;;;;;5075442;28;20100;-49
2022/01/12 06:44:25;;;;;;;41.97;21.20;;;;;;;;;;5075526;28;20419;-49
2022/01/12 06:46:52;;;;;;;;;;;;;;;;;;5075999;28;20028;-47
2022/01/12 06:49:20;;;;;;;37.10;18.67;;;;;;;;;;5075598;28;19911;-49
2022/01/12 06:51:47;;;;;;;39.17;20.40;;;;;;;;;;5075336;28;20045;-49
2022/01/12 06:54:14;;;;;;;39.40;20.27;;;;;;;;;;5075469;28;20031;-50
2022/01/12 06:56:40;;;;;;;37.90;20.38;;;;;;;;;;5075248;28;20024;-52
2022/01/12 06:59:06;;;;;;;47.65;24.83;;;;;;;;;;5075298;28;20036;-51
2022/01/12 07:01:33;;;;;;;45.78;22.55;;;;;;;;;;5075240;28;20103;-51
2022/01/12 07:03:59;;;;;;;45.08;24.90;;;;;;;;;;5075100;28;20060;-50
2022/01/12 07:06:25;;;;;;;46.63;24.83;;;;;;;;;;5073945;28;20489;-49
2022/01/12 07:08:51;;;;;;;47.65;24.67;;;;;;;;;;5075263;28;20111;-51
2022/01/12 07:11:17;;;;;;;53.80;29.58;;;;;;;;;;5075324;28;20456;-51
2022/01/12 07:13:44;;;;;;;55.85;29.20;;;;;;;;;;5075131;28;20107;-51
2022/01/12 07:16:11;;;;;;;57.78;29.70;;;;;;;;;;5075022;28;20028;-50
2022/01/12 07:18:37;;;;;;;56.22;28.67;;;;;;;;;;5074895;28;20025;-50
2022/01/12 07:21:03;;;;;;;64.20;32.35;;;;;;;;;;5074930;28;20482;-50
2022/01/12 07:23:30;;;;;;;58.00;29.90;;;;;;;;;;5074691;28;20119;-51
2022/01/12 07:25:56;;;;;;;58.85;29.65;;;;;;;;;;5074553;28;20559;-50
2022/01/12 07:28:22;;;;;;;58.78;31.80;;;;;;;;;;5074684;28;20132;-51
2022/01/12 07:30:53;;;;;;;51.03;28.20;;;;;;;;;;5074847;28;20024;-50
2022/01/12 07:33:20;;;;;;;55.58;28.95;;;;;;;;;;5074752;28;20028;-49
2022/01/12 07:35:46;;;;;;;55.70;29.85;;;;;;;;;;5074544;28;20033;-50
2022/01/12 07:38:12;;;;;;;62.28;27.45;;;;;;;;;;5073588;28;20108;-50
2022/01/12 07:40:39;;;;;;;61.35;35.22;;;;;;;;;;5074645;28;20024;-49
2022/01/12 07:43:06;;;;;;;72.68;40.47;;;;;;;;;;5074652;28;20090;-51
2022/01/12 07:45:32;;;;;;;46.58;27.92;;;;;;;;;;5074478;28;20513;-51
2022/01/12 07:47:58;;;;;;;58.60;33.08;;;;;;;;;;5074197;28;20028;-49
2022/01/12 07:50:24;;;;;;;52.63;30.80;;;;;;;;;;5074311;28;20419;-52
2022/01/12 07:52:53;;;;;;;50.58;29.50;;;;;;;;;;5074236;28;20021;-49
2022/01/12 07:55:20;;;;;;;50.50;28.42;;;;;;;;;;5074383;28;20070;-49
2022/01/12 07:57:46;;;;;;;56.60;28.48;;;;;;;;;;5074525;28;20040;-48
2022/01/12 08:00:12;;;;;;;54.50;31.00;;;;;;;;;;5074074;28;20025;-48
2022/01/12 08:02:39;;;;;;;51.97;29.05;;;;;;;;;;5074074;28;20036;-50
2022/01/12 08:05:05;;;;;;;48.08;27.58;;;;;;;;;;5074123;28;20252;-50
2022/01/12 08:07:35;;;;;;;61.28;35.95;;;;;;;;;;5074034;28;20021;-46
2022/01/12 08:10:02;;;;;;;45.35;28.23;;;;;;;;;;5074175;28;20389;-49
2022/01/12 08:12:28;;;;;;;50.90;31.02;;;;;;;;;;5073885;28;20032;-50
2022/01/12 08:14:54;;;;;;;57.92;31.67;;;;;;;;;;5073951;28;20465;-49
2022/01/12 08:17:22;;;;;;;62.20;36.28;;;;;;;;;;5074110;28;20043;-50
2022/01/12 08:19:50;;;;;;;78.72;43.03;;;;;;;;;;5073672;28;20040;-50
2022/01/12 08:22:16;;;;;;;64.45;34.55;;;;;;;;;;5073481;28;20052;-50
2022/01/12 08:24:43;;;;;;;60.25;34.05;;;;;;;;;;5072752;28;20032;-49
2022/01/12 08:27:09;;;;;;;54.38;29.75;;;;;;;;;;5073783;28;20028;-50
2022/01/12 08:29:35;;;;;;;54.35;28.98;;;;;;;;;;5073458;28;20506;-51
2022/01/12 08:32:02;;;;;;;48.10;28.13;;;;;;;;;;5073683;28;20070;-50
2022/01/12 08:34:30;;;;;;;50.08;29.77;;;;;;;;;;5073561;28;20107;-50
2022/01/12 08:36:57;;;;;;;40.30;24.92;;;;;;;;;;5073557;28;20021;-50
2022/01/12 08:39:23;;;;;;;42.67;26.85;;;;;;;;;;5073640;28;20027;-52
2022/01/12 08:41:49;;;;;;;46.78;29.23;;;;;;;;;;5073512;28;20024;-50
2022/01/12 08:44:15;;;;;;;45.03;26.83;;;;;;;;;;5073372;28;20095;-50
2022/01/12 08:46:42;;;;;;;52.80;30.58;;;;;;;;;;5073487;28;20021;-49
2022/01/12 08:49:08;;;;;;;65.68;42.20;;;;;;;;;;5073201;28;20024;-52
2022/01/12 08:51:34;;;;;;;61.28;36.00;;;;;;;;;;5073310;28;20029;-50
2022/01/12 08:54:01;;;;;;;47.28;29.85;;;;;;;;;;5073491;28;20070;-50
2022/01/12 08:56:27;;;;;;;39.28;26.05;;;;;;;;;;5073289;28;20060;-52
2022/01/12 08:58:53;;;;;;;37.45;27.05;;;;;;;;;;5073472;28;20394;-52
2022/01/12 09:01:20;;;;;;;36.72;23.98;;;;;;;;;;5073253;28;20576;-53
2022/01/12 09:03:46;;;;;;;31.88;21.10;;;;;;;;;;5073306;28;20037;-50
2022/01/12 09:06:13;;;;;;;33.45;23.05;;;;;;;;;;5073106;28;20501;-50
2022/01/12 09:08:40;;;;;;;37.42;25.73;;;;;;;;;;5073211;28;20029;-50
2022/01/12 09:11:07;;;;;;;32.00;21.30;;;;;;;;;;5073247;28;20031;-49
2022/01/12 09:13:33;;;;;;;40.17;26.05;;;;;;;;;;5073379;28;20482;-49
2022/01/12 09:16:03;;;;;;;35.78;24.95;;;;;;;;;;5073101;28;20024;-50
2022/01/12 09:18:29;;;;;;;46.88;28.67;;;;;;;;;;5073047;28;20036;-50
2022/01/12 09:20:57;;;;;;;62.38;43.05;;;;;;;;;;5073096;28;20029;-52
2022/01/12 09:23:23;;;;;;;59.55;38.47;;;;;;;;;;5073176;28;20060;-53
2022/01/12 09:25:49;;;;;;;41.60;30.23;;;;;;;;;;5073112;28;20422;-52
2022/01/12 09:28:17;;;;;;;40.30;28.52;;;;;;;;;;5072979;28;20094;-52
2022/01/12 09:30:44;;;;;;;55.15;34.83;;;;;;;;;;5072942;28;20494;-53
2022/01/12 09:33:10;;;;;;;53.72;37.58;;;;;;;;;;5072993;28;20035;-53
2022/01/12 09:35:36;;;;;;;47.17;33.30;;;;;;;;;;5072987;28;20028;-52
2022/01/12 09:38:02;;;;;;;71.03;46.05;;;;;;;;;;5072873;28;20032;-54
2022/01/12 09:40:28;;;;;;;52.13;35.58;;;;;;;;;;5073024;28;20024;-54
2022/01/12 09:42:57;;;;;;;84.10;53.58;;;;;;;;;;5072732;28;20127;-54
2022/01/12 09:45:26;;;;;;;40.60;27.80;;;;;;;;;;5072701;28;20029;-52
2022/01/12 09:47:52;;;;;;;46.20;29.60;;;;;;;;;;5071651;28;20025;-56
2022/01/12 09:50:21;;;;;;;37.80;26.85;;;;;;;;;;5072823;28;20374;-43
2022/01/12 09:52:47;;;;;;;45.50;29.75;;;;;;;;;;5072626;28;20028;-43
2022/01/12 09:55:13;;;;;;;36.65;26.40;;;;;;;;;;5072782;28;20025;-43
2022/01/12 09:57:39;;;;;;;40.72;26.15;;;;;;;;;;5072863;28;20496;-43
2022/01/12 10:00:06;;;;;;;35.58;25.20;;;;;;;;;;5072648;28;20039;-43
2022/01/12 10:02:33;;;;;;;38.30;27.55;;;;;;;;;;5075698;28;20021;-43
2022/01/12 10:05:17;;;;;;;37.63;24.15;;;;;;;;;;5076327;28;20035;-44
2022/01/12 10:07:44;;;;;;;42.65;27.63;;;;;;;;;;5076331;28;20016;-44
2022/01/12 10:10:14;;;;;;;49.65;29.00;;;;;;;;;;5076288;28;20024;-44
2022/01/12 10:12:51;;;;;;;44.40;31.27;;;;;;;;;;5087494;28;20024;-44
2022/01/12 10:15:17;;;;;;;34.42;24.65;;;;;;;;;;5095865;28;20020;-42
2022/01/12 10:17:45;;;;;;;52.05;35.33;;;;;;;;;;5092962;28;20024;-44
2022/01/12 10:20:21;;;;;;;52.33;33.78;;;;;;;;;;5095923;28;20081;-43
2022/01/12 10:22:59;;;;;;;45.45;28.27;;;;;;;;;;5093504;28;20036;-44
2022/01/12 10:25:26;;;;;;;40.00;27.13;;;;;;;;;;5093198;28;20492;-44
2022/01/12 10:27:52;;;;;;;38.08;26.40;;;;;;;;;;5094145;28;20131;-38
2022/01/12 10:30:32;;;;;;;34.47;22.02;;;;;;;;;;5095973;28;20028;-44
2022/01/12 10:33:09;;;;;;;31.98;20.92;;;;;;;;;;5095090;28;20392;-43
2022/01/12 10:35:37;;;;;;;32.00;21.27;;;;;;;;;;5095686;28;20473;-44
2022/01/12 10:38:16;;;;;;;48.60;29.02;;;;;;;;;;5095445;28;20107;-43
2022/01/12 10:40:57;;;;;;;44.38;26.60;;;;;;;;;;5095423;28;20495;-43
2022/01/12 10:43:29;;;;;;;44.33;24.48;;;;;;;;;;5095473;28;20027;-44
2022/01/12 10:45:55;;;;;;;43.92;24.35;;;;;;;;;;5095337;28;20073;-44
2022/01/12 10:48:24;;;;;;;41.95;26.70;;;;;;;;;;5095275;28;20019;-42
2022/01/12 10:51:00;;;;;;;41.97;24.02;;;;;;;;;;5095203;28;20088;-43
2022/01/12 10:53:31;;;;;;;40.38;23.35;;;;;;;;;;5092722;28;20016;-41
2022/01/12 10:56:20;;;;;;;37.30;21.98;;;;;;;;;;5095003;28;20099;-44
2022/01/12 10:58:47;;;;;;;37.33;22.60;;;;;;;;;;5032805;28;20103;-43
2022/01/12 11:01:14;;;;;;;64.93;33.10;;;;;;;;;;5032722;28;20550;-42
2022/01/12 11:03:41;;;;;;;62.65;31.10;;;;;;;;;;5032618;28;20049;-41
2022/01/12 11:06:08;;;;;;;37.38;23.38;;;;;;;;;;5032632;28;20378;-43
2022/01/12 11:08:34;;;;;;;56.08;28.05;;;;;;;;;;5032683;28;20076;-42
2022/01/12 11:11:01;;;;;;;81.65;36.15;;;;;;;;;;5032549;28;20037;-41
2022/01/12 11:13:28;;;;;;;76.22;35.35;;;;;;;;;;5032534;28;20022;-42
2022/01/12 11:15:56;;;;;;;87.47;43.75;;;;;;;;;;5032426;28;20022;-48
2022/01/12 11:18:24;;;;;;;73.72;38.00;;;;;;;;;;5032393;28;20033;-41
2022/01/12 11:20:54;;;;;;;42.13;23.88;;;;;;;;;;5032410;28;20511;-41
2022/01/12 11:23:21;;;;;;;40.60;22.40;;;;;;;;;;5032151;28;20046;-41
2022/01/12 11:25:48;;;;;;;38.63;22.02;;;;;;;;;;5032033;28;20160;-43
2022/01/12 11:28:17;;;;;;;42.95;24.10;;;;;;;;;;5032083;28;20570;-42
2022/01/12 11:30:52;;;;;;;40.80;23.08;;;;;;;;;;5032139;28;20570;-42
2022/01/12 11:33:22;;;;;;;43.38;24.40;;;;;;;;;;5032137;28;20072;-42
2022/01/12 11:35:55;;;;;;;42.78;25.92;;;;;;;;;;5061193;28;20028;-44
2022/01/12 11:38:29;;;;;;;42.53;22.92;;;;;;;;;;5094290;28;20019;-44
2022/01/12 11:40:56;;;;;;;46.78;25.42;;;;;;;;;;5092189;28;20390;-46
2022/01/12 11:43:25;;;;;;;44.25;24.55;;;;;;;;;;5094756;28;20059;-44
2022/01/12 11:46:11;;;;;;;64.78;35.25;;;;;;;;;;5091588;28;20042;-42
2022/01/12 11:48:42;;;;;;;54.70;28.90;;;;;;;;;;5093541;28;20024;-42
2022/01/12 11:51:08;;;;;;;46.28;25.52;;;;;;;;;;5094282;28;20120;-43
2022/01/12 11:53:51;;;;;;;49.20;24.70;;;;;;;;;;5091388;28;20070;-43
2022/01/12 11:56:24;;;;;;;47.15;25.40;;;;;;;;;;5091615;28;20030;-42
2022/01/12 11:59:07;;;;;;;37.63;22.08;;;;;;;;;;5094074;28;20091;-43
2022/01/12 12:01:55;;;;;;;57.08;28.95;;;;;;;;;;5093772;28;20047;-42
2022/01/12 12:04:21;;;;;;;37.03;21.52;;;;;;;;;;5092042;28;20036;-42
2022/01/12 12:06:47;;;;;;;39.05;22.30;;;;;;;;;;5093795;28;20024;-41
2022/01/12 12:09:18;;;;;;;40.35;22.20;;;;;;;;;;5093719;28;20493;-41
2022/01/12 12:11:51;;;;;;;36.20;21.58;;;;;;;;;;5093707;28;20024;-41
2022/01/12 12:14:17;;;;;;;42.50;23.90;;;;;;;;;;5091409;28;20098;-42
2022/01/12 12:16:44;;;;;;;43.75;23.90;;;;;;;;;;5093595;28;20462;-43
2022/01/12 12:19:10;;;;;;;47.55;25.85;;;;;;;;;;5092217;28;20535;-43
2022/01/12 12:21:37;;;;;;;54.33;26.13;;;;;;;;;;5093510;28;20016;-43
2022/01/12 12:24:13;;;;;;;48.17;25.10;;;;;;;;;;5093144;28;20032;-43
2022/01/12 12:26:45;;;;;;;39.40;22.30;;;;;;;;;;5091172;28;20052;-41
2022/01/12 12:29:11;;;;;;;38.72;22.08;;;;;;;;;;5093216;28;20089;-43
2022/01/12 12:31:39;;;;;;;41.45;22.58;;;;;;;;;;5093204;28;20048;-43
2022/01/12 12:34:06;;;;;;;34.40;20.38;;;;;;;;;;5093261;28;20058;-43
2022/01/12 12:36:33;;;;;;;42.25;23.75;;;;;;;;;;5093115;28;20465;-41
2022/01/12 12:39:09;;;;;;;39.13;22.60;;;;;;;;;;5093308;28;20061;-42
2022/01/12 12:41:53;;;;;;;54.60;30.80;;;;;;;;;;5093113;28;20490;-42
2022/01/12 12:44:25;;;;;;;49.75;26.30;;;;;;;;;;5090215;28;20050;-42
2022/01/12 12:46:52;;;;;;;46.08;24.85;;;;;;;;;;5090546;28;20012;-42
2022/01/12 12:49:18;;;;;;;54.60;27.92;;;;;;;;;;5093046;28;20027;-42
2022/01/12 12:51:44;;;;;;;44.55;24.27;;;;;;;;;;5093214;28;20373;-42
2022/01/12 12:54:15;;;;;;;42.72;23.92;;;;;;;;;;5092969;28;20032;-42
2022/01/12 12:56:48;;;;;;;52.30;26.80;;;;;;;;;;5093189;28;20023;-41
2022/01/12 12:59:14;;;;;;;55.28;30.38;;;;;;;;;;5092940;28;20032;-43
2022/01/12 13:01:41;;;;;;;57.20;31.90;;;;;;;;;;5090033;28;20016;-43
2022/01/12 13:04:07;;;;;;;57.67;29.17;;;;;;;;;;5092835;28;20089;-42
2022/01/12 13:06:34;;;;;;;58.55;28.35;;;;;;;;;;5092901;28;20466;-43
2022/01/12 13:09:03;;;;;;;48.67;26.42;;;;;;;;;;5090210;28;20020;-43
2022/01/12 13:11:34;;;;;;;56.88;28.40;;;;;;;;;;5092804;28;20474;-44
2022/01/12 13:14:01;;;;;;;49.60;27.40;;;;;;;;;;5092765;28;20012;-43
2022/01/12 13:16:27;;;;;;;48.45;25.98;;;;;;;;;;5092592;28;20024;-42
2022/01/12 13:19:05;;;;;;;50.38;26.95;;;;;;;;;;5092912;28;20020;-43
2022/01/12 13:21:36;;;;;;;51.85;25.67;;;;;;;;;;5091617;28;20025;-41
2022/01/12 13:24:02;;;;;;;50.05;24.65;;;;;;;;;;5090117;28;20043;-42
2022/01/12 13:26:34;;;;;;;68.43;35.08;;;;;;;;;;5092755;28;20024;-42
2022/01/12 13:29:04;;;;;;;62.20;31.55;;;;;;;;;;5089494;28;20127;-43
2022/01/12 13:31:30;;;;;;;48.65;25.50;;;;;;;;;;5092621;28;20025;-45
2022/01/12 13:33:58;;;;;;;50.50;25.35;;;;;;;;;;5092553;28;20111;-42
2022/01/12 13:36:25;;;;;;;48.60;26.45;;;;;;;;;;5093707;28;20016;-43
2022/01/12 13:38:56;;;;;;;66.88;33.70;;;;;;;;;;5096571;28;20020;-42
2022/01/12 13:41:23;;;;;;;77.68;39.20;;;;;;;;;;5093949;28;20016;-42
2022/01/12 13:43:53;;;;;;;64.43;33.03;;;;;;;;;;5097205;28;20043;-42
2022/01/12 13:46:19;;;;;;;55.38;27.30;;;;;;;;;;5097109;28;20017;-41
2022/01/12 13:51:40;;;;;;;53.25;28.45;;;;;;;;;;5097175;28;20381;-42
2022/01/12 13:54:16;;;;;;;49.13;24.58;;;;;;;;;;5096983;28;20033;-43
2022/01/12 13:56:44;;;;;;;54.70;25.92;;;;;;;;;;5097102;28;20032;-43
2022/01/12 13:59:15;;;;;;;49.10;23.60;;;;;;;;;;5096692;28;20531;-42
2022/01/12 14:01:41;;;;;;;45.50;23.45;;;;;;;;;;5096580;28;20374;-42
2022/01/12 14:04:21;;;;;;;50.42;25.20;;;;;;;;;;5096638;28;20111;-41
2022/01/12 14:06:48;;;;;;;49.53;25.52;;;;;;;;;;5096567;28;20101;-43
2022/01/12 14:09:33;;;;;;;58.95;29.30;;;;;;;;;;5096813;28;20358;-43
2022/01/12 14:12:15;;;;;;;55.55;28.63;;;;;;;;;;5096556;28;20062;-42
2022/01/12 14:15:06;;;;;;;50.80;25.48;;;;;;;;;;5096516;28;20024;-42
2022/01/12 14:17:44;;;;;;;55.40;26.63;;;;;;;;;;5054033;28;20418;-44
2022/01/12 14:20:15;;;;;;;56.10;26.52;;;;;;;;;;5054221;28;20120;-43
2022/01/12 14:22:45;;;;;;;85.93;36.80;;;;;;;;;;5054053;28;20033;-43
2022/01/12 14:25:12;;;;;;;87.82;37.45;;;;;;;;;;5053921;28;20166;-43
2022/01/12 14:27:42;;;;;;;96.18;37.72;;;;;;;;;;5053514;28;20033;-42
2022/01/12 14:30:11;;;;;;;109.50;45.63;;;;;;;;;;5054128;28;20037;-42
2022/01/12 14:32:38;;;;;;;164.73;64.43;;;;;;;;;;5053983;28;20036;-44
2022/01/12 14:35:06;;;;;;;162.77;63.10;;;;;;;;;;5053657;28;20376;-42
2022/01/12 14:37:32;;;;;;;136.75;58.22;;;;;;;;;;5053861;28;20470;-43
2022/01/12 14:39:58;;;;;;;132.93;59.70;;;;;;;;;;5053785;28;20078;-43
2022/01/12 14:42:25;;;;;;;122.32;50.65;;;;;;;;;;5053720;28;20032;-43
2022/01/12 14:44:51;;;;;;;77.47;37.55;;;;;;;;;;5053533;28;20438;-43
2022/01/12 14:47:17;;;;;;;73.93;35.00;;;;;;;;;;5053122;28;20069;-44
2022/01/12 14:49:43;;;;;;;68.63;33.35;;;;;;;;;;5053561;28;20127;-43
2022/01/12 14:52:10;;;;;;;64.80;32.53;;;;;;;;;;5053437;28;20112;-44
2022/01/12 14:54:36;;;;;;;71.35;34.00;;;;;;;;;;5075959;28;20047;-44
2022/01/12 14:57:02;;;;;;;72.63;34.35;;;;;;;;;;5095718;28;20031;-43
2022/01/12 14:59:28;;;;;;;70.65;35.10;;;;;;;;;;5095536;28;20028;-44
2022/01/12 15:01:54;;;;;;;69.93;35.50;;;;;;;;;;5095611;28;20020;-42
2022/01/12 15:04:27;;;;;;;65.13;30.33;;;;;;;;;;5095526;28;20481;-42
2022/01/12 15:06:53;;;;;;;61.92;29.00;;;;;;;;;;5095534;28;20035;-42
2022/01/12 15:09:19;;;;;;;63.25;29.10;;;;;;;;;;5094935;28;20610;-43
2022/01/12 15:11:49;;;;;;;52.25;27.55;;;;;;;;;;5094685;28;20107;-45
2022/01/12 15:17:00;;;;;;;76.78;36.40;;;;;;;;;;5093736;28;20534;-43
2022/01/12 15:19:26;;;;;;;93.25;39.47;;;;;;;;;;5094816;28;20032;-43
2022/01/12 15:21:52;;;;;;;70.97;34.22;;;;;;;;;;5094631;28;20020;-39
2022/01/12 15:24:18;;;;;;;76.82;33.72;;;;;;;;;;5094586;28;20474;-44
2022/01/12 15:26:46;;;;;;;73.57;32.97;;;;;;;;;;5085387;28;20033;-43
2022/01/12 15:29:12;;;;;;;62.72;31.42;;;;;;;;;;5066024;28;20499;-43
2022/01/12 15:31:39;;;;;;;66.38;30.17;;;;;;;;;;5063622;28;20016;-43
2022/01/12 15:34:05;;;;;;;80.70;35.30;;;;;;;;;;5062642;28;20062;-43
2022/01/12 15:36:31;;;;;;;68.70;32.72;;;;;;;;;;5063911;28;20020;-42
2022/01/12 15:38:57;;;;;;;77.35;33.58;;;;;;;;;;5065065;28;20065;-43
2022/01/12 15:41:23;;;;;;;73.40;37.20;;;;;;;;;;5063453;28;20476;-42
2022/01/12 15:43:49;;;;;;;80.72;35.08;;;;;;;;;;5064462;28;20036;-43
2022/01/12 15:46:16;;;;;;;72.90;34.70;;;;;;;;;;5063310;28;20048;-43
2022/01/12 15:48:42;;;;;;;73.15;36.13;;;;;;;;;;5063291;28;20086;-43
2022/01/12 15:51:09;;;;;;;85.03;39.05;;;;;;;;;;5063212;28;20032;-43